createdAt,value
2022-08-16T00:00:30.396Z,10.50
2022-08-16T00:03:13.312Z,10.70
2022-08-16T00:05:47.913Z,10.50
2022-08-16T00:08:36.099Z,11.00
2022-08-16T00:11:15.824Z,11.90
2022-08-16T00:13:54.360Z,11.10
2022-08-16T00:17:00.941Z,10.80
2022-08-16T00:19:41.784Z,10.60
2022-08-16T00:22:12.977Z,11.60
2022-08-16T00:24:46.932Z,10.80
2022-08-16T00:27:15.589Z,10.60
2022-08-16T00:29:45.875Z,10.60
2022-08-16T00:32:18.178Z,11.40
2022-08-16T00:34:53.245Z,10.90
2022-08-16T00:37:58.668Z,11.30
2022-08-16T00:40:33.623Z,10.50
2022-08-16T00:43:12.011Z,10.30
2022-08-16T00:46:33.654Z,10.20
2022-08-16T00:49:18.801Z,10.80
2022-08-16T00:51:54.803Z,11.10
2022-08-16T00:54:29.194Z,9.80
2022-08-16T00:57:00.875Z,10.80
2022-08-16T00:59:34.599Z,11.60
2022-08-16T01:02:30.600Z,11.70
2022-08-16T01:05:09.448Z,11.50
2022-08-16T01:07:51.192Z,11.90
2022-08-16T01:10:32.095Z,10.90
2022-08-16T01:13:12.266Z,12.20
2022-08-16T01:15:54.130Z,12.00
2022-08-16T01:18:39.402Z,10.70
2022-08-16T01:21:33.845Z,11.90
2022-08-16T01:24:53.495Z,11.60
2022-08-16T01:27:20.531Z,10.90
2022-08-16T01:29:59.829Z,11.80
2022-08-16T01:32:42.516Z,10.70
2022-08-16T01:35:24.820Z,11.50
2022-08-16T01:37:57.215Z,13.30
2022-08-16T01:40:30.796Z,12.00
2022-08-16T01:42:58.911Z,13.50
2022-08-16T01:45:39.730Z,12.60
2022-08-16T01:48:19.867Z,13.00
2022-08-16T01:51:09.169Z,12.30
2022-08-16T01:53:41.255Z,11.90
2022-08-16T01:56:24.790Z,11.70
2022-08-16T01:58:57.166Z,12.10
2022-08-16T02:01:28.166Z,11.80
2022-08-16T02:03:58.716Z,10.70
2022-08-16T02:06:46.797Z,12.00
2022-08-16T02:09:18.111Z,11.20
2022-08-16T02:11:53.086Z,11.60
2022-08-16T02:14:27.347Z,11.90
2022-08-16T02:16:59.604Z,12.30
2022-08-16T02:19:59.645Z,12.10
2022-08-16T02:22:34.324Z,12.50
2022-08-16T02:25:14.840Z,13.20
2022-08-16T02:27:50.841Z,13.40
2022-08-16T02:30:36.719Z,12.20
2022-08-16T02:33:12.861Z,12.40
2022-08-16T02:35:53.871Z,11.30
2022-08-16T02:38:24.022Z,11.20
2022-08-16T02:40:54.685Z,11.50
2022-08-16T02:43:29.803Z,12.30
2022-08-16T02:46:02.695Z,12.30
2022-08-16T02:48:36.474Z,11.70
2022-08-16T02:51:11.290Z,12.70
2022-08-16T02:53:45.131Z,10.90
2022-08-16T02:56:16.483Z,11.90
2022-08-16T02:58:46.611Z,12.20
2022-08-16T03:01:24.643Z,12.70
2022-08-16T03:04:41.160Z,12.10
2022-08-16T03:06:56.682Z,12.10
2022-08-16T03:09:28.540Z,11.90
2022-08-16T03:11:57.536Z,12.20
2022-08-16T03:14:26.080Z,12.40
2022-08-16T03:16:59.636Z,12.30
2022-08-16T03:19:48.714Z,12.90
2022-08-16T03:22:27.945Z,12.60
2022-08-16T03:25:05.119Z,13.20
2022-08-16T03:27:39.216Z,11.90
2022-08-16T03:30:25.791Z,12.20
2022-08-16T03:32:53.871Z,12.90
2022-08-16T03:35:33.311Z,12.80
2022-08-16T03:38:08.545Z,12.30
2022-08-16T03:40:56.152Z,12.20
2022-08-16T03:43:51.777Z,12.10
2022-08-16T03:46:47.678Z,12.20
2022-08-16T03:49:04.821Z,12.70
2022-08-16T03:51:32.471Z,12.30
2022-08-16T03:54:01.761Z,12.70
2022-08-16T03:56:30.402Z,12.30
2022-08-16T03:58:59.699Z,12.20
2022-08-16T04:01:29.444Z,13.30
2022-08-16T04:03:57.777Z,12.60
2022-08-16T04:06:25.365Z,11.80
2022-08-16T04:08:54.452Z,12.00
2022-08-16T04:11:23.577Z,12.50
2022-08-16T04:13:59.415Z,11.30
2022-08-16T04:16:35.295Z,12.60
2022-08-16T04:19:04.935Z,11.80
2022-08-16T04:21:47.393Z,12.80
2022-08-16T04:24:15.756Z,11.90
2022-08-16T04:26:46.411Z,13.50
2022-08-16T04:29:23.904Z,14.00
2022-08-16T04:31:56.316Z,14.20
2022-08-16T04:34:36.195Z,13.70
2022-08-16T04:37:07.159Z,13.70
2022-08-16T04:39:47.362Z,13.80
2022-08-16T04:42:25.922Z,13.70
2022-08-16T04:44:56.171Z,13.80
2022-08-16T04:47:32.995Z,14.10
2022-08-16T04:50:16.251Z,13.50
2022-08-16T04:52:49.079Z,14.00
2022-08-16T04:55:31.638Z,12.90
2022-08-16T04:58:04.681Z,14.00
2022-08-16T05:00:52.968Z,13.80
2022-08-16T05:03:21.347Z,14.30
2022-08-16T05:05:59.475Z,14.10
2022-08-16T05:08:33.101Z,14.10
2022-08-16T05:11:08.317Z,14.10
2022-08-16T05:13:42.399Z,15.40
2022-08-16T05:16:19.872Z,15.20
2022-08-16T05:18:51.388Z,14.50
2022-08-16T05:21:20.804Z,14.80
2022-08-16T05:23:58.444Z,15.70
2022-08-16T05:26:29.976Z,14.40
2022-08-16T05:29:00.185Z,13.90
2022-08-16T05:31:32.788Z,13.50
2022-08-16T05:34:04.615Z,12.90
2022-08-16T05:36:37.048Z,12.60
2022-08-16T05:39:09.638Z,13.50
2022-08-16T05:41:45.535Z,14.30
2022-08-16T05:44:23.201Z,13.90
2022-08-16T05:46:56.410Z,13.00
2022-08-16T05:49:36.938Z,12.90
2022-08-16T05:52:11.790Z,13.70
2022-08-16T05:54:47.183Z,13.10
2022-08-16T05:57:18.504Z,13.30
2022-08-16T05:59:50.352Z,13.10
2022-08-16T06:02:21.797Z,11.40
2022-08-16T06:04:56.637Z,10.20
2022-08-16T06:07:26.583Z,9.80
2022-08-16T06:09:59.624Z,11.10
2022-08-16T06:12:29.705Z,10.70
2022-08-16T06:15:04.345Z,10.00
2022-08-16T06:17:43.219Z,9.70
2022-08-16T06:20:24.334Z,9.70
2022-08-16T06:23:03.069Z,9.30
2022-08-16T06:25:36.548Z,9.90
2022-08-16T06:28:17.309Z,11.40
2022-08-16T06:31:01.362Z,11.80
2022-08-16T06:33:29.743Z,11.70
2022-08-16T06:36:11.809Z,10.90
2022-08-16T06:38:55.836Z,11.50
2022-08-16T06:41:27.600Z,11.50
2022-08-16T06:43:56.556Z,12.20
2022-08-16T06:46:40.202Z,14.20
2022-08-16T06:49:11.919Z,16.70
2022-08-16T06:51:48.403Z,11.40
2022-08-16T06:54:17.348Z,10.60
2022-08-16T06:56:45.679Z,10.20
2022-08-16T06:59:13.514Z,9.30
2022-08-16T07:01:43.161Z,9.90
2022-08-16T07:04:32.720Z,10.00
2022-08-16T07:07:02.864Z,10.50
2022-08-16T07:09:31.399Z,10.50
2022-08-16T07:12:03.254Z,9.80
2022-08-16T07:14:33.098Z,9.80
2022-08-16T07:17:01.573Z,9.50
2022-08-16T07:20:29.990Z,10.10
2022-08-16T07:22:37.528Z,10.10
2022-08-16T07:25:14.247Z,9.80
2022-08-16T07:27:44.129Z,10.40
2022-08-16T07:30:39.925Z,9.20
2022-08-16T07:33:07.242Z,9.70
2022-08-16T07:35:36.138Z,9.40
2022-08-16T07:38:06.296Z,10.10
2022-08-16T07:40:59.150Z,9.40
2022-08-16T07:43:25.006Z,9.90
2022-08-16T07:45:57.140Z,10.30
2022-08-16T07:48:25.104Z,10.00
2022-08-16T07:50:56.187Z,9.60
2022-08-16T07:53:32.558Z,9.20
2022-08-16T07:56:00.797Z,9.50
2022-08-16T07:58:33.760Z,9.10
2022-08-16T08:01:10.488Z,8.90
2022-08-16T08:03:48.280Z,8.60
2022-08-16T08:06:27.756Z,8.90
2022-08-16T08:08:59.355Z,9.00
2022-08-16T08:11:29.844Z,8.60
2022-08-16T08:14:03.019Z,10.50
2022-08-16T08:16:33.793Z,7.40
2022-08-16T08:19:04.289Z,8.20
2022-08-16T08:21:59.258Z,8.10
2022-08-16T08:24:31.752Z,8.20
2022-08-16T08:27:04.215Z,8.00
2022-08-16T08:29:37.756Z,7.40
2022-08-16T08:32:58.198Z,7.90
2022-08-16T08:35:00.503Z,8.40
2022-08-16T08:37:54.223Z,7.90
2022-08-16T08:40:27.662Z,8.70
2022-08-16T08:43:11.405Z,8.00
2022-08-16T08:45:48.789Z,6.60
2022-08-16T08:48:34.369Z,6.60
2022-08-16T08:51:09.166Z,6.90
2022-08-16T08:53:38.318Z,6.90
2022-08-16T08:56:22.508Z,7.20
2022-08-16T08:58:53.947Z,7.30
2022-08-16T09:01:31.788Z,7.10
2022-08-16T09:04:07.023Z,7.10
2022-08-16T09:06:35.653Z,7.00
2022-08-16T09:09:16.976Z,8.10
2022-08-16T09:11:53.367Z,7.30
2022-08-16T09:14:26.052Z,7.50
2022-08-16T09:17:02.935Z,7.80
2022-08-16T09:19:37.196Z,7.10
2022-08-16T09:22:20.117Z,7.70
2022-08-16T09:24:53.137Z,7.00
2022-08-16T09:27:23.421Z,7.80
2022-08-16T09:30:00.212Z,8.10
2022-08-16T09:32:31.261Z,8.90
2022-08-16T09:35:01.592Z,7.10
2022-08-16T09:37:36.887Z,7.70
2022-08-16T09:40:09.599Z,7.10
2022-08-16T09:42:59.360Z,7.80
2022-08-16T09:45:28.969Z,7.60
2022-08-16T09:47:58.551Z,7.90
2022-08-16T09:50:36.879Z,7.30
2022-08-16T09:53:18.311Z,7.40
2022-08-16T09:55:53.645Z,7.80
2022-08-16T09:58:40.832Z,8.30
2022-08-16T10:01:11.535Z,9.00
2022-08-16T10:04:01.945Z,7.80
2022-08-16T10:06:33.366Z,7.90
2022-08-16T10:09:06.797Z,8.40
2022-08-16T10:11:56.567Z,8.90
2022-08-16T10:14:40.720Z,7.80
2022-08-16T10:17:14.786Z,8.40
2022-08-16T10:19:43.146Z,8.20
2022-08-16T10:22:12.639Z,8.20
2022-08-16T10:24:56.037Z,8.30
2022-08-16T10:27:45.630Z,8.70
2022-08-16T10:30:25.662Z,8.30
2022-08-16T10:32:57.736Z,10.20
2022-08-16T10:35:32.970Z,8.30
2022-08-16T10:38:01.394Z,8.40
2022-08-16T10:40:30.650Z,8.80
2022-08-16T10:43:02.376Z,8.40
2022-08-16T10:45:36.530Z,8.60
2022-08-16T10:48:27.303Z,9.20
2022-08-16T10:51:00.514Z,9.10
2022-08-16T10:53:32.736Z,8.60
2022-08-16T10:56:06.305Z,7.80
2022-08-16T10:59:32.370Z,8.30
2022-08-16T11:02:21.750Z,7.90
2022-08-16T11:13:21.159Z,7.80
2022-08-16T11:15:55.387Z,7.80
2022-08-16T11:18:48.842Z,7.60
2022-08-16T11:21:28.623Z,7.90
2022-08-16T11:23:58.977Z,7.80
2022-08-16T11:26:28.362Z,7.80
2022-08-16T11:29:13.965Z,7.60
2022-08-16T11:31:45.938Z,8.20
2022-08-16T11:34:22.265Z,7.50
2022-08-16T11:36:53.755Z,7.30
2022-08-16T11:39:29.694Z,7.20
2022-08-16T11:41:58.062Z,8.10
2022-08-16T11:44:52.067Z,7.40
2022-08-16T11:47:13.521Z,8.20
2022-08-16T11:49:41.186Z,7.80
2022-08-16T11:52:08.913Z,7.80
2022-08-16T11:54:37.543Z,8.50
2022-08-16T11:57:09.431Z,8.30
2022-08-16T11:59:39.780Z,8.40
2022-08-16T12:02:31.229Z,8.10
2022-08-16T12:04:57.791Z,7.50
2022-08-16T12:07:25.508Z,8.30
2022-08-16T12:09:54.144Z,8.10
2022-08-16T12:12:23.506Z,7.60
2022-08-16T12:14:59.891Z,8.10
2022-08-16T12:17:32.531Z,7.80
2022-08-16T12:20:18.549Z,7.60
2022-08-16T12:22:47.285Z,8.30
2022-08-16T12:25:17.992Z,7.40
2022-08-16T12:27:49.770Z,8.10
2022-08-16T12:30:27.061Z,7.90
2022-08-16T12:33:03.071Z,7.20
2022-08-16T12:35:32.600Z,7.50
2022-08-16T12:38:38.163Z,7.20
2022-08-16T12:40:55.537Z,7.50
2022-08-16T12:43:25.409Z,8.10
2022-08-16T12:45:56.269Z,8.30
2022-08-16T12:48:51.116Z,8.10
2022-08-16T12:51:30.591Z,7.80
2022-08-16T12:54:04.423Z,7.90
2022-08-16T12:56:36.183Z,7.60
2022-08-16T12:59:12.194Z,7.90
2022-08-16T13:01:50.641Z,7.60
2022-08-16T13:04:33.287Z,8.30
2022-08-16T13:07:04.638Z,7.90
2022-08-16T13:09:42.907Z,7.30
2022-08-16T13:12:23.827Z,8.50
2022-08-16T13:14:53.938Z,8.10
2022-08-16T13:17:29.495Z,8.30
2022-08-16T13:20:08.612Z,8.00
2022-08-16T13:22:50.493Z,7.00
2022-08-16T13:25:25.281Z,8.00
2022-08-16T13:28:01.924Z,8.70
2022-08-16T13:30:43.132Z,8.20
2022-08-16T13:33:26.115Z,8.50
2022-08-16T13:36:01.543Z,8.40
2022-08-16T13:38:37.278Z,8.50
2022-08-16T13:41:09.460Z,8.10
2022-08-16T13:43:39.152Z,8.10
2022-08-16T13:46:08.032Z,8.40
2022-08-16T13:48:44.490Z,9.30
2022-08-16T13:51:17.843Z,7.40
2022-08-16T13:53:54.626Z,7.10
2022-08-16T13:56:37.445Z,6.70
2022-08-16T13:59:20.906Z,6.10
2022-08-16T14:01:55.439Z,7.10
2022-08-16T14:04:38.128Z,6.90
2022-08-16T14:07:12.295Z,6.80
2022-08-16T14:09:48.268Z,6.80
2022-08-16T14:12:30.762Z,6.50
2022-08-16T14:15:00.546Z,6.50
2022-08-16T14:18:01.685Z,7.20
2022-08-16T14:20:19.348Z,7.30
2022-08-16T14:22:52.476Z,6.60
2022-08-16T14:25:23.835Z,7.00
2022-08-16T14:27:52.357Z,6.50
2022-08-16T14:30:23.486Z,6.90
2022-08-16T14:32:52.925Z,7.10
2022-08-16T14:35:29.265Z,7.00
2022-08-16T14:38:05.609Z,7.20
2022-08-16T14:40:33.733Z,7.40
2022-08-16T14:43:06.214Z,7.30
2022-08-16T14:45:35.365Z,7.50
2022-08-16T14:48:03.587Z,7.20
2022-08-16T14:50:33.913Z,7.50
2022-08-16T14:53:08.661Z,7.50
2022-08-16T14:55:41.082Z,7.90
2022-08-16T14:58:18.731Z,7.30
2022-08-16T15:00:50.310Z,7.10
2022-08-16T15:03:23.257Z,7.20
2022-08-16T15:05:53.696Z,7.10
2022-08-16T15:08:21.967Z,7.10
2022-08-16T15:11:07.664Z,8.10
2022-08-16T15:13:36.219Z,6.40
2022-08-16T15:16:05.640Z,6.70
2022-08-16T15:18:34.141Z,6.90
2022-08-16T15:21:05.228Z,6.70
2022-08-16T15:23:36.934Z,7.20
2022-08-16T15:26:08.571Z,8.70
2022-08-16T15:28:37.900Z,7.80
2022-08-16T15:31:10.344Z,7.20
2022-08-16T15:33:49.955Z,7.40
2022-08-16T15:36:21.299Z,7.20
2022-08-16T15:39:02.271Z,6.70
2022-08-16T15:41:43.095Z,6.50
2022-08-16T15:44:22.735Z,6.20
2022-08-16T15:46:56.994Z,6.90
2022-08-16T15:49:37.498Z,7.10
2022-08-16T15:52:20.504Z,8.20
2022-08-16T15:54:53.292Z,8.20
2022-08-16T15:57:28.333Z,7.60
2022-08-16T16:00:14.872Z,7.70
2022-08-16T16:02:45.156Z,8.50
2022-08-16T16:05:14.060Z,7.40
2022-08-16T16:07:56.770Z,8.30
2022-08-16T16:10:30.966Z,8.30
2022-08-16T16:13:03.766Z,8.00
2022-08-16T16:15:50.105Z,7.70
2022-08-16T16:18:20.505Z,8.70
2022-08-16T16:20:54.100Z,7.40
2022-08-16T16:23:31.963Z,8.20
2022-08-16T16:26:05.851Z,7.70
2022-08-16T16:29:06.276Z,7.60
2022-08-16T16:31:24.470Z,7.30
2022-08-16T16:33:56.183Z,7.40
2022-08-16T16:36:29.367Z,8.00
2022-08-16T16:38:57.681Z,7.70
2022-08-16T16:41:29.392Z,10.00
2022-08-16T16:44:00.253Z,11.60
2022-08-16T16:46:43.409Z,9.90
2022-08-16T16:49:14.302Z,11.30
2022-08-16T16:51:44.894Z,11.80
2022-08-16T16:54:27.461Z,8.30
2022-08-16T16:56:58.210Z,7.80
2022-08-16T16:59:28.331Z,8.30
2022-08-16T17:02:41.273Z,8.80
2022-08-16T17:04:48.333Z,8.60
2022-08-16T17:07:17.700Z,9.30
2022-08-16T17:09:53.687Z,8.60
2022-08-16T17:12:25.469Z,7.70
2022-08-16T17:15:11.119Z,7.60
2022-08-16T17:17:59.225Z,8.20
2022-08-16T17:20:27.497Z,7.20
2022-08-16T17:22:56.665Z,7.40
2022-08-16T17:25:27.092Z,6.80
2022-08-16T17:28:58.962Z,7.10
2022-08-16T17:30:55.510Z,7.80
2022-08-16T17:33:23.289Z,7.60
2022-08-16T17:35:55.874Z,7.20
2022-08-16T17:38:38.530Z,7.20
2022-08-16T17:41:13.903Z,7.10
2022-08-16T17:43:45.254Z,7.20
2022-08-16T17:46:51.006Z,7.40
2022-08-16T17:49:04.975Z,6.80
2022-08-16T17:51:34.289Z,6.70
2022-08-16T17:54:03.541Z,7.30
2022-08-16T17:56:31.756Z,7.60
2022-08-16T17:58:59.416Z,8.10
2022-08-16T18:01:28.793Z,8.20
2022-08-16T18:04:07.119Z,8.70
2022-08-16T18:06:39.652Z,8.20
2022-08-16T18:09:09.347Z,8.30
2022-08-16T18:11:41.247Z,8.50
2022-08-16T18:14:12.493Z,8.70
2022-08-16T18:16:41.877Z,8.40
2022-08-16T18:19:13.212Z,9.30
2022-08-16T18:22:00.015Z,9.00
2022-08-16T18:24:29.565Z,9.00
2022-08-16T18:27:24.759Z,8.80
2022-08-16T18:29:47.195Z,9.10
2022-08-16T18:32:23.488Z,9.00
2022-08-16T18:34:54.805Z,8.60
2022-08-16T18:37:25.569Z,9.60
2022-08-16T18:39:53.313Z,8.90
2022-08-16T18:42:21.072Z,8.80
2022-08-16T18:44:49.047Z,8.20
2022-08-16T18:47:16.641Z,8.70
2022-08-16T18:49:44.397Z,8.70
2022-08-16T18:52:25.057Z,9.20
2022-08-16T18:54:58.895Z,9.00
2022-08-16T18:57:41.855Z,8.90
2022-08-16T19:00:14.727Z,9.80
2022-08-16T19:02:58.388Z,10.20
2022-08-16T19:05:31.017Z,10.60
2022-08-16T19:07:58.889Z,10.30
2022-08-16T19:10:26.628Z,9.70
2022-08-16T19:12:54.460Z,10.70
2022-08-16T19:15:26.376Z,11.10
2022-08-16T19:17:55.369Z,11.00
2022-08-16T19:20:26.040Z,10.80
2022-08-16T19:23:10.914Z,12.10
2022-08-16T19:25:46.816Z,11.80
2022-08-16T19:28:51.431Z,12.20
2022-08-16T19:31:23.555Z,11.10
2022-08-16T19:33:55.450Z,12.30
2022-08-16T19:36:31.619Z,11.30
2022-08-16T19:39:09.058Z,10.50
2022-08-16T19:41:43.883Z,11.10
2022-08-16T19:44:12.852Z,11.70
2022-08-16T19:46:44.789Z,10.60
2022-08-16T19:49:16.591Z,11.10
2022-08-16T19:51:47.054Z,11.20
2022-08-16T19:54:15.772Z,11.50
2022-08-16T19:56:43.772Z,10.70
2022-08-16T19:59:21.009Z,10.10
2022-08-16T20:01:53.684Z,10.40
2022-08-16T20:04:23.410Z,10.70
2022-08-16T20:06:53.085Z,10.40
2022-08-16T20:09:24.522Z,10.80
2022-08-16T20:11:54.614Z,11.60
2022-08-16T20:14:25.234Z,11.90
2022-08-16T20:16:57.218Z,12.80
2022-08-16T20:19:28.943Z,14.00
2022-08-16T20:22:01.839Z,12.10
2022-08-16T20:24:35.191Z,13.30
2022-08-16T20:27:08.665Z,12.20
2022-08-16T20:29:39.435Z,12.40
2022-08-16T20:32:11.904Z,12.10
2022-08-16T20:34:41.675Z,12.20
2022-08-16T20:37:12.837Z,13.20
2022-08-16T20:39:44.037Z,13.30
2022-08-16T20:42:14.445Z,13.70
2022-08-16T20:44:43.021Z,14.10
2022-08-16T20:47:11.320Z,15.00
2022-08-16T20:49:38.960Z,13.40
2022-08-16T20:52:13.688Z,16.50
2022-08-16T20:54:42.838Z,15.80
2022-08-16T20:57:12.096Z,15.30
2022-08-16T20:59:40.048Z,14.20
2022-08-16T21:02:11.529Z,15.00
2022-08-16T21:04:39.786Z,13.20
2022-08-16T21:07:07.748Z,11.90
2022-08-16T21:09:37.231Z,13.50
2022-08-16T21:12:11.393Z,12.50
2022-08-16T21:14:43.045Z,12.30
2022-08-16T21:17:13.305Z,12.20
2022-08-16T21:19:40.947Z,14.00
2022-08-16T21:22:22.209Z,13.70
2022-08-16T21:24:54.218Z,12.50
2022-08-16T21:27:24.286Z,13.40
2022-08-16T21:29:52.611Z,13.70
2022-08-16T21:32:35.818Z,13.30
2022-08-16T21:35:08.718Z,12.90
2022-08-16T21:37:36.441Z,12.80
2022-08-16T21:40:06.623Z,13.50
2022-08-16T21:42:41.143Z,13.00
2022-08-16T21:45:13.311Z,13.80
2022-08-16T21:47:42.897Z,13.00
2022-08-16T21:50:12.790Z,11.30
2022-08-16T21:52:40.377Z,12.00
2022-08-16T21:55:08.866Z,12.80
2022-08-16T21:57:36.646Z,13.60
2022-08-16T22:00:13.983Z,11.80
2022-08-16T22:02:41.753Z,12.40
2022-08-16T22:05:09.669Z,12.70
2022-08-16T22:07:37.573Z,13.50
2022-08-16T22:11:06.816Z,14.10
2022-08-16T22:12:55.290Z,14.40
2022-08-16T22:15:25.620Z,15.00
2022-08-16T22:17:59.444Z,14.40
2022-08-16T22:20:29.328Z,13.30
2022-08-16T22:23:10.457Z,14.00
2022-08-16T22:25:42.837Z,14.00
2022-08-16T22:28:12.283Z,13.10
2022-08-16T22:30:41.208Z,13.50
2022-08-16T22:33:23.318Z,13.10
2022-08-16T22:36:02.068Z,13.90
2022-08-16T22:38:55.527Z,13.40
2022-08-16T22:41:17.829Z,13.00
2022-08-16T22:43:49.436Z,13.30
2022-08-16T22:46:18.735Z,12.80
2022-08-16T22:48:48.339Z,13.40
2022-08-16T22:51:16.892Z,13.30
2022-08-16T22:53:44.567Z,13.50
2022-08-16T22:56:12.202Z,14.80
2022-08-16T22:58:39.789Z,14.20
2022-08-16T23:01:09.752Z,15.40
2022-08-16T23:03:39.197Z,13.20
2022-08-16T23:06:08.264Z,14.40
2022-08-16T23:08:40.919Z,13.30
2022-08-16T23:11:21.190Z,12.80
2022-08-16T23:13:54.253Z,13.40
2022-08-16T23:16:32.571Z,13.10
2022-08-16T23:19:11.585Z,11.00
2022-08-16T23:21:46.941Z,12.20
2022-08-16T23:24:20.330Z,12.40
2022-08-16T23:26:49.253Z,10.40
2022-08-16T23:29:25.450Z,12.20
2022-08-16T23:32:10.944Z,12.10
2022-08-16T23:34:38.876Z,13.80
2022-08-16T23:37:06.642Z,13.70
2022-08-16T23:39:35.806Z,12.80
2022-08-16T23:42:15.549Z,14.30
2022-08-16T23:45:04.542Z,11.80
2022-08-16T23:47:32.161Z,12.80
2022-08-16T23:50:03.440Z,13.20
2022-08-16T23:52:42.105Z,13.90
2022-08-16T23:55:20.062Z,13.10
2022-08-16T23:57:48.450Z,13.60
